sensor_id;sensor_type;location;lat;lon;timestamp;pressure;altitude;pressure_sealevel;temperature;humidity
79678;BME280;69145;45.544;10.214;2023-07-09T00:01:44;100482.34;;;25.76;58.41
79678;BME280;69145;45.544;10.214;2023-07-09T00:04:11;100490.56;;;25.75;59.05
79678;BME280;69145;45.544;10.214;2023-07-09T00:06:38;100474.94;;;25.73;58.76
79678;BME280;69145;45.544;10.214;2023-07-09T00:09:04;100477.59;;;25.73;58.54
79678;BME280;69145;45.544;10.214;2023-07-09T00:11:30;100487.38;;;25.73;58.85
79678;BME280;69145;45.544;10.214;2023-07-09T00:13:55;100493.47;;;25.73;58.45
79678;BME280;69145;45.544;10.214;2023-07-09T00:16:23;100483.94;;;25.72;58.75
79678;BME280;69145;45.544;10.214;2023-07-09T00:18:49;100477.84;;;25.72;58.81
79678;BME280;69145;45.544;10.214;2023-07-09T00:21:20;100478.38;;;25.79;58.52
79678;BME280;69145;45.544;10.214;2023-07-09T00:23:46;100470.44;;;25.74;58.92
79678;BME280;69145;45.544;10.214;2023-07-09T00:26:15;100480.75;;;25.75;58.85
79678;BME280;69145;45.544;10.214;2023-07-09T00:28:41;100472.53;;;25.77;59.18
79678;BME280;69145;45.544;10.214;2023-07-09T00:31:16;100471.75;;;25.71;58.42
79678;BME280;69145;45.544;10.214;2023-07-09T00:33:44;100466.16;;;25.73;58.54
79678;BME280;69145;45.544;10.214;2023-07-09T00:36:18;100468.28;;;25.71;58.95
79678;BME280;69145;45.544;10.214;2023-07-09T00:38:45;100471.22;;;25.69;58.41
79678;BME280;69145;45.544;10.214;2023-07-09T00:41:18;100466.19;;;25.63;58.72
79678;BME280;69145;45.544;10.214;2023-07-09T00:43:46;100456.13;;;25.59;58.96
79678;BME280;69145;45.544;10.214;2023-07-09T00:48:56;100462.47;;;25.63;59.29
79678;BME280;69145;45.544;10.214;2023-07-09T00:51:24;100466.19;;;25.63;59.29
79678;BME280;69145;45.544;10.214;2023-07-09T00:53:54;100459.84;;;25.53;60.46
79678;BME280;69145;45.544;10.214;2023-07-09T00:56:30;100464.59;;;25.61;59.56
79678;BME280;69145;45.544;10.214;2023-07-09T00:58:57;100463.03;;;25.55;59.63
79678;BME280;69145;45.544;10.214;2023-07-09T01:01:26;100468.03;;;25.57;60.18
79678;BME280;69145;45.544;10.214;2023-07-09T01:03:54;100457.19;;;25.53;59.68
79678;BME280;69145;45.544;10.214;2023-07-09T01:06:31;100461.16;;;25.56;59.40
79678;BME280;69145;45.544;10.214;2023-07-09T01:08:58;100466.47;;;25.56;59.53
79678;BME280;69145;45.544;10.214;2023-07-09T01:11:24;100470.44;;;25.58;60.06
79678;BME280;69145;45.544;10.214;2023-07-09T01:13:52;100460.38;;;25.50;60.24
79678;BME280;69145;45.544;10.214;2023-07-09T01:16:25;100477.84;;;25.56;59.65
79678;BME280;69145;45.544;10.214;2023-07-09T01:18:52;100462.47;;;25.53;59.90
79678;BME280;69145;45.544;10.214;2023-07-09T01:21:18;100468.03;;;25.57;59.86
79678;BME280;69145;45.544;10.214;2023-07-09T01:23:45;100467.25;;;25.56;59.46
79678;BME280;69145;45.544;10.214;2023-07-09T01:26:17;100460.38;;;25.50;59.88
79678;BME280;69145;45.544;10.214;2023-07-09T01:28:43;100459.56;;;25.55;59.68
79678;BME280;69145;45.544;10.214;2023-07-09T01:31:13;100467.25;;;25.56;59.94
79678;BME280;69145;45.544;10.214;2023-07-09T01:33:40;100468.31;;;25.50;59.58
79678;BME280;69145;45.544;10.214;2023-07-09T01:36:11;100467.53;;;25.50;59.92
79678;BME280;69145;45.544;10.214;2023-07-09T01:38:39;100464.34;;;25.48;60.47
79678;BME280;69145;45.544;10.214;2023-07-09T01:41:04;100461.41;;;25.44;59.73
79678;BME280;69145;45.544;10.214;2023-07-09T01:43:32;100471.22;;;25.44;60.13
79678;BME280;69145;45.544;10.214;2023-07-09T01:45:58;100469.66;;;25.38;60.48
79678;BME280;69145;45.544;10.214;2023-07-09T01:48:24;100476.50;;;25.44;60.10
79678;BME280;69145;45.544;10.214;2023-07-09T01:50:51;100470.94;;;25.40;60.13
79678;BME280;69145;45.544;10.214;2023-07-09T01:53:19;100470.41;;;25.38;60.08
79678;BME280;69145;45.544;10.214;2023-07-09T01:55:49;100466.19;;;25.37;60.39
79678;BME280;69145;45.544;10.214;2023-07-09T01:58:14;100462.75;;;25.37;60.25
79678;BME280;69145;45.544;10.214;2023-07-09T02:00:41;100476.22;;;25.35;59.79
79678;BME280;69145;45.544;10.214;2023-07-09T02:03:07;100467.75;;;25.33;60.81
79678;BME280;69145;45.544;10.214;2023-07-09T02:05:33;100469.34;;;25.29;60.57
79678;BME280;69145;45.544;10.214;2023-07-09T02:07:59;100477.56;;;25.33;61.26
79678;BME280;69145;45.544;10.214;2023-07-09T02:10:25;100470.94;;;25.30;60.24
79678;BME280;69145;45.544;10.214;2023-07-09T02:12:50;100474.38;;;25.31;60.40
79678;BME280;69145;45.544;10.214;2023-07-09T02:15:16;100479.16;;;25.24;60.31
79678;BME280;69145;45.544;10.214;2023-07-09T02:17:42;100488.66;;;25.25;60.77
79678;BME280;69145;45.544;10.214;2023-07-09T02:20:08;100482.56;;;25.24;61.60
79678;BME280;69145;45.544;10.214;2023-07-09T02:22:36;100477.81;;;25.16;60.50
79678;BME280;69145;45.544;10.214;2023-07-09T02:25:03;100495.31;;;25.22;60.76
79678;BME280;69145;45.544;10.214;2023-07-09T02:27:28;100482.03;;;25.12;60.96
79678;BME280;69145;45.544;10.214;2023-07-09T02:29:54;100494.75;;;25.25;60.41
79678;BME280;69145;45.544;10.214;2023-07-09T02:32:25;100490.00;;;25.22;60.59
79678;BME280;69145;45.544;10.214;2023-07-09T02:34:52;100493.69;;;25.21;60.38
79678;BME280;69145;45.544;10.214;2023-07-09T02:37:25;100498.72;;;25.23;60.39
79678;BME280;69145;45.544;10.214;2023-07-09T02:39:51;100492.88;;;25.16;60.82
79678;BME280;69145;45.544;10.214;2023-07-09T02:42:19;100497.91;;;25.17;60.62
79678;BME280;69145;45.544;10.214;2023-07-09T02:44:45;100506.66;;;25.23;60.70
79678;BME280;69145;45.544;10.214;2023-07-09T02:47:11;100502.16;;;25.18;60.34
79678;BME280;69145;45.544;10.214;2023-07-09T02:49:38;100500.84;;;25.16;60.34
79678;BME280;69145;45.544;10.214;2023-07-09T02:52:04;100506.41;;;25.14;61.08
79678;BME280;69145;45.544;10.214;2023-07-09T02:54:29;100504.00;;;25.13;60.60
79678;BME280;69145;45.544;10.214;2023-07-09T02:56:55;100514.06;;;25.16;60.80
79678;BME280;69145;45.544;10.214;2023-07-09T02:59:21;100501.38;;;25.08;60.49
79678;BME280;69145;45.544;10.214;2023-07-09T03:01:46;100514.88;;;25.11;60.68
79678;BME280;69145;45.544;10.214;2023-07-09T03:04:13;100515.91;;;25.10;60.79
79678;BME280;69145;45.544;10.214;2023-07-09T03:06:38;100522.28;;;25.09;60.99
79678;BME280;69145;45.544;10.214;2023-07-09T03:09:05;100515.91;;;25.05;60.69
79678;BME280;69145;45.544;10.214;2023-07-09T03:11:33;100511.16;;;25.02;60.82
79678;BME280;69145;45.544;10.214;2023-07-09T03:13:59;100501.84;;;24.95;60.64
79678;BME280;69145;45.544;10.214;2023-07-09T03:16:29;100518.28;;;25.07;60.93
79678;BME280;69145;45.544;10.214;2023-07-09T03:18:56;100523.31;;;25.08;61.25
79678;BME280;69145;45.544;10.214;2023-07-09T03:21:23;100524.13;;;25.09;60.69
79678;BME280;69145;45.544;10.214;2023-07-09T03:23:49;100516.19;;;25.09;60.85
79678;BME280;69145;45.544;10.214;2023-07-09T03:26:14;100514.06;;;25.01;60.94
79678;BME280;69145;45.544;10.214;2023-07-09T03:28:40;100504.22;;;24.96;61.01
79678;BME280;69145;45.544;10.214;2023-07-09T03:31:06;100515.34;;;24.98;61.61
79678;BME280;69145;45.544;10.214;2023-07-09T03:33:31;100506.88;;;24.96;60.98
79678;BME280;69145;45.544;10.214;2023-07-09T03:35:56;100519.63;;;24.99;61.81
79678;BME280;69145;45.544;10.214;2023-07-09T03:38:22;100514.81;;;24.91;62.13
79678;BME280;69145;45.544;10.214;2023-07-09T03:40:54;100512.69;;;24.93;62.55
79678;BME280;69145;45.544;10.214;2023-07-09T03:43:20;100514.53;;;24.93;61.18
79678;BME280;69145;45.544;10.214;2023-07-09T03:45:47;100512.16;;;24.91;61.98
79678;BME280;69145;45.544;10.214;2023-07-09T03:48:14;100515.06;;;24.90;62.02
79678;BME280;69145;45.544;10.214;2023-07-09T03:50:41;100515.63;;;24.97;61.37
79678;BME280;69145;45.544;10.214;2023-07-09T03:53:07;100518.25;;;24.92;61.38
79678;BME280;69145;45.544;10.214;2023-07-09T03:55:32;100517.47;;;24.91;61.86
79678;BME280;69145;45.544;10.214;2023-07-09T03:57:58;100514.53;;;24.88;61.30
79678;BME280;69145;45.544;10.214;2023-07-09T04:00:23;100514.81;;;24.86;61.89
79678;BME280;69145;45.544;10.214;2023-07-09T04:02:50;100522.22;;;24.94;61.12
79678;BME280;69145;45.544;10.214;2023-07-09T04:05:16;100520.91;;;24.92;61.58
79678;BME280;69145;45.544;10.214;2023-07-09T04:07:42;100514.53;;;24.93;61.73
79678;BME280;69145;45.544;10.214;2023-07-09T04:10:07;100520.91;;;24.92;61.45
79678;BME280;69145;45.544;10.214;2023-07-09T04:12:33;100519.84;;;24.88;61.28
79678;BME280;69145;45.544;10.214;2023-07-09T04:14:58;100520.91;;;24.87;61.71
79678;BME280;69145;45.544;10.214;2023-07-09T04:17:23;100518.47;;;24.85;61.68
79678;BME280;69145;45.544;10.214;2023-07-09T04:19:50;100514.00;;;24.86;61.92
79678;BME280;69145;45.544;10.214;2023-07-09T04:22:16;100513.72;;;24.82;61.61
79678;BME280;69145;45.544;10.214;2023-07-09T04:24:42;100496.75;;;24.73;61.73
79678;BME280;69145;45.544;10.214;2023-07-09T04:27:08;100524.84;;;24.89;62.09
79678;BME280;69145;45.544;10.214;2023-07-09T04:29:34;100522.47;;;24.88;61.59
79678;BME280;69145;45.544;10.214;2023-07-09T04:32:01;100524.84;;;24.84;61.75
79678;BME280;69145;45.544;10.214;2023-07-09T04:34:26;100519.28;;;24.86;61.67
79678;BME280;69145;45.544;10.214;2023-07-09T04:36:52;100524.31;;;24.82;62.20
79678;BME280;69145;45.544;10.214;2023-07-09T04:39:17;100538.34;;;24.88;61.39
79678;BME280;69145;45.544;10.214;2023-07-09T04:41:42;100532.53;;;24.91;61.96
79678;BME280;69145;45.544;10.214;2023-07-09T04:44:08;100532.78;;;24.84;61.55
79678;BME280;69145;45.544;10.214;2023-07-09T04:46:33;100528.03;;;24.86;61.10
79678;BME280;69145;45.544;10.214;2023-07-09T04:48:59;100531.72;;;24.85;61.56
79678;BME280;69145;45.544;10.214;2023-07-09T04:51:25;100520.34;;;24.85;61.64
79678;BME280;69145;45.544;10.214;2023-07-09T04:53:51;100532.03;;;24.94;61.58
79678;BME280;69145;45.544;10.214;2023-07-09T04:56:17;100519.00;;;24.82;61.26
79678;BME280;69145;45.544;10.214;2023-07-09T04:58:42;100515.81;;;24.80;61.51
79678;BME280;69145;45.544;10.214;2023-07-09T05:01:08;100534.41;;;24.90;61.63
79678;BME280;69145;45.544;10.214;2023-07-09T05:03:33;100528.59;;;24.93;61.57
79678;BME280;69145;45.544;10.214;2023-07-09T05:05:59;100531.50;;;24.92;61.36
79678;BME280;69145;45.544;10.214;2023-07-09T05:08:24;100520.63;;;24.88;62.35
79678;BME280;69145;45.544;10.214;2023-07-09T05:10:51;100530.16;;;24.94;61.74
79678;BME280;69145;45.544;10.214;2023-07-09T05:13:17;100534.16;;;24.97;61.70
79678;BME280;69145;45.544;10.214;2023-07-09T05:15:44;100530.97;;;25.00;61.43
79678;BME280;69145;45.544;10.214;2023-07-09T05:18:11;100531.50;;;24.97;61.64
79678;BME280;69145;45.544;10.214;2023-07-09T05:20:36;100522.00;;;25.01;61.40
79678;BME280;69145;45.544;10.214;2023-07-09T05:23:02;100523.31;;;24.98;62.47
79678;BME280;69145;45.544;10.214;2023-07-09T05:25:28;100531.78;;;25.05;61.52
79678;BME280;69145;45.544;10.214;2023-07-09T05:27:53;100532.34;;;25.12;61.52
79678;BME280;69145;45.544;10.214;2023-07-09T05:30:19;100533.94;;;25.18;61.51
79678;BME280;69145;45.544;10.214;2023-07-09T05:32:44;100531.84;;;25.15;61.40
79678;BME280;69145;45.544;10.214;2023-07-09T05:35:10;100523.38;;;25.18;61.15
79678;BME280;69145;45.544;10.214;2023-07-09T05:37:36;100539.00;;;25.25;61.73
79678;BME280;69145;45.544;10.214;2023-07-09T05:40:02;100523.91;;;25.20;61.53
79678;BME280;69145;45.544;10.214;2023-07-09T05:42:29;100528.13;;;25.21;60.92
79678;BME280;69145;45.544;10.214;2023-07-09T05:44:55;100535.31;;;25.26;61.06
79678;BME280;69145;45.544;10.214;2023-07-09T05:47:20;100528.66;;;25.28;60.88
79678;BME280;69145;45.544;10.214;2023-07-09T05:49:45;100526.28;;;25.32;61.44
79678;BME280;69145;45.544;10.214;2023-07-09T05:52:14;100518.88;;;25.29;61.39
79678;BME280;69145;45.544;10.214;2023-07-09T05:54:40;100527.38;;;25.36;60.65
79678;BME280;69145;45.544;10.214;2023-07-09T05:57:06;100524.72;;;25.36;60.85
79678;BME280;69145;45.544;10.214;2023-07-09T05:59:31;100531.88;;;25.40;60.56
79678;BME280;69145;45.544;10.214;2023-07-09T06:01:56;100538.53;;;25.43;61.53
79678;BME280;69145;45.544;10.214;2023-07-09T06:04:22;100539.84;;;25.40;60.89
79678;BME280;69145;45.544;10.214;2023-07-09T06:06:47;100539.56;;;25.42;61.06
79678;BME280;69145;45.544;10.214;2023-07-09T06:09:12;100540.09;;;25.44;61.81
79678;BME280;69145;45.544;10.214;2023-07-09T06:11:38;100538.53;;;25.48;62.17
79678;BME280;69145;45.544;10.214;2023-07-09T06:14:03;100533.75;;;25.50;60.08
79678;BME280;69145;45.544;10.214;2023-07-09T06:16:28;100543.06;;;25.57;60.23
79678;BME280;69145;45.544;10.214;2023-07-09T06:18:54;100546.25;;;25.59;60.56
79678;BME280;69145;45.544;10.214;2023-07-09T06:21:19;100541.97;;;25.58;60.41
79678;BME280;69145;45.544;10.214;2023-07-09T06:23:46;100533.75;;;25.60;59.37
79678;BME280;69145;45.544;10.214;2023-07-09T06:26:11;100536.41;;;25.65;59.64
79678;BME280;69145;45.544;10.214;2023-07-09T06:28:37;100533.53;;;25.67;59.65
79678;BME280;69145;45.544;10.214;2023-07-09T06:31:03;100544.66;;;25.74;59.29
79678;BME280;69145;45.544;10.214;2023-07-09T06:33:28;100536.94;;;25.67;59.54
79678;BME280;69145;45.544;10.214;2023-07-09T06:35:56;100533.50;;;25.72;59.24
79678;BME280;69145;45.544;10.214;2023-07-09T06:38:22;100539.84;;;25.71;59.64
79678;BME280;69145;45.544;10.214;2023-07-09T06:40:48;100541.19;;;25.73;59.60
79678;BME280;69145;45.544;10.214;2023-07-09T06:43:14;100552.34;;;25.75;60.49
79678;BME280;69145;45.544;10.214;2023-07-09T06:45:54;100532.19;;;25.69;59.49
79678;BME280;69145;45.544;10.214;2023-07-09T06:48:20;100553.91;;;25.81;59.27
79678;BME280;69145;45.544;10.214;2023-07-09T06:50:47;100549.66;;;25.85;60.12
79678;BME280;69145;45.544;10.214;2023-07-09T06:53:13;100542.78;;;25.79;61.04
79678;BME280;69145;45.544;10.214;2023-07-09T06:55:38;100550.47;;;25.81;60.58
79678;BME280;69145;45.544;10.214;2023-07-09T06:58:07;100553.13;;;25.81;60.75
79678;BME280;69145;45.544;10.214;2023-07-09T07:00:35;100551.53;;;25.85;60.70
79678;BME280;69145;45.544;10.214;2023-07-09T07:03:00;100564.78;;;25.90;61.78
79678;BME280;69145;45.544;10.214;2023-07-09T07:05:26;100556.81;;;25.85;62.36
79678;BME280;69145;45.544;10.214;2023-07-09T07:07:51;100557.91;;;25.79;61.99
79678;BME280;69145;45.544;10.214;2023-07-09T07:10:18;100556.31;;;25.83;61.58
79678;BME280;69145;45.544;10.214;2023-07-09T07:12:46;100547.81;;;25.91;60.73
79678;BME280;69145;45.544;10.214;2023-07-09T07:15:14;100548.88;;;26.00;61.10
79678;BME280;69145;45.544;10.214;2023-07-09T07:17:40;100548.09;;;26.04;60.24
79678;BME280;69145;45.544;10.214;2023-07-09T07:20:07;100545.69;;;25.98;61.71
79678;BME280;69145;45.544;10.214;2023-07-09T07:22:33;100542.78;;;25.94;61.35
79678;BME280;69145;45.544;10.214;2023-07-09T07:24:58;100546.47;;;25.88;63.88
79678;BME280;69145;45.544;10.214;2023-07-09T07:27:24;100544.63;;;25.84;62.19
79678;BME280;69145;45.544;10.214;2023-07-09T07:29:49;100526.06;;;25.69;63.21
79678;BME280;69145;45.544;10.214;2023-07-09T07:32:14;100532.97;;;25.80;63.24
79678;BME280;69145;45.544;10.214;2023-07-09T07:34:40;100533.25;;;25.93;60.13
79678;BME280;69145;45.544;10.214;2023-07-09T07:37:05;100539.59;;;25.97;62.75
79678;BME280;69145;45.544;10.214;2023-07-09T07:39:30;100535.09;;;25.98;62.31
79678;BME280;69145;45.544;10.214;2023-07-09T07:41:56;100530.84;;;25.97;62.77
79678;BME280;69145;45.544;10.214;2023-07-09T07:44:22;100533.50;;;26.07;60.38
79678;BME280;69145;45.544;10.214;2023-07-09T07:46:48;100526.88;;;25.94;61.42
79678;BME280;69145;45.544;10.214;2023-07-09T07:49:14;100517.06;;;25.85;61.95
79678;BME280;69145;45.544;10.214;2023-07-09T07:51:39;100521.59;;;25.84;62.63
79678;BME280;69145;45.544;10.214;2023-07-09T07:54:08;100520.25;;;25.82;63.35
79678;BME280;69145;45.544;10.214;2023-07-09T07:56:38;100525.28;;;25.93;62.16
79678;BME280;69145;45.544;10.214;2023-07-09T07:59:03;100522.63;;;25.88;62.04
79678;BME280;69145;45.544;10.214;2023-07-09T08:01:29;100522.34;;;25.85;61.42
79678;BME280;69145;45.544;10.214;2023-07-09T08:03:54;100527.94;;;25.83;61.64
79678;BME280;69145;45.544;10.214;2023-07-09T08:06:25;100520.50;;;25.80;62.25
79678;BME280;69145;45.544;10.214;2023-07-09T08:08:50;100526.34;;;25.82;63.28
79678;BME280;69145;45.544;10.214;2023-07-09T08:11:16;100520.50;;;25.80;63.50
79678;BME280;69145;45.544;10.214;2023-07-09T08:13:42;100518.66;;;25.81;63.15
79678;BME280;69145;45.544;10.214;2023-07-09T08:16:07;100515.22;;;25.80;62.30
79678;BME280;69145;45.544;10.214;2023-07-09T08:18:36;100516.78;;;25.81;62.70
79678;BME280;69145;45.544;10.214;2023-07-09T08:21:02;100519.97;;;25.78;62.35
79678;BME280;69145;45.544;10.214;2023-07-09T08:23:28;100514.94;;;25.82;61.94
79678;BME280;69145;45.544;10.214;2023-07-09T08:25:58;100519.19;;;25.93;60.06
79678;BME280;69145;45.544;10.214;2023-07-09T08:28:24;100510.97;;;25.94;61.81
79678;BME280;69145;45.544;10.214;2023-07-09T08:30:54;100514.94;;;25.87;62.22
79678;BME280;69145;45.544;10.214;2023-07-09T08:33:20;100513.91;;;25.83;63.79
79678;BME280;69145;45.544;10.214;2023-07-09T08:35:49;100483.94;;;25.67;61.30
79678;BME280;69145;45.544;10.214;2023-07-09T08:38:14;100514.66;;;25.88;62.25
79678;BME280;69145;45.544;10.214;2023-07-09T08:40:58;100514.66;;;25.88;61.84
79678;BME280;69145;45.544;10.214;2023-07-09T08:43:45;100510.97;;;25.89;62.09
79678;BME280;69145;45.544;10.214;2023-07-09T08:46:21;100509.91;;;26.00;60.34
79678;BME280;69145;45.544;10.214;2023-07-09T08:48:51;100511.47;;;26.11;58.18
79678;BME280;69145;45.544;10.214;2023-07-09T08:51:24;100509.63;;;26.12;57.67
79678;BME280;69145;45.544;10.214;2023-07-09T08:53:58;100513.06;;;26.17;57.59
79678;BME280;69145;45.544;10.214;2023-07-09T08:56:25;100512.84;;;26.04;60.87
79678;BME280;69145;45.544;10.214;2023-07-09T08:58:53;100516.03;;;26.06;60.82
79678;BME280;69145;45.544;10.214;2023-07-09T09:01:27;100512.28;;;25.97;62.57
79678;BME280;69145;45.544;10.214;2023-07-09T09:04:02;100513.34;;;25.96;62.51
79678;BME280;69145;45.544;10.214;2023-07-09T09:06:30;100503.28;;;25.88;63.23
79678;BME280;69145;45.544;10.214;2023-07-09T09:11:45;100510.16;;;25.89;62.06
79678;BME280;69145;45.544;10.214;2023-07-09T09:14:31;100516.25;;;25.99;62.28
79678;BME280;69145;45.544;10.214;2023-07-09T09:16:58;100520.00;;;26.03;61.28
79678;BME280;69145;45.544;10.214;2023-07-09T09:19:34;100523.97;;;26.06;63.16
79678;BME280;69145;45.544;10.214;2023-07-09T09:22:11;100520.78;;;26.04;62.28
79678;BME280;69145;45.544;10.214;2023-07-09T09:27:43;100526.63;;;26.06;61.90
79678;BME280;69145;45.544;10.214;2023-07-09T09:30:19;100531.38;;;26.14;59.97
79678;BME280;69145;45.544;10.214;2023-07-09T09:32:52;100522.09;;;26.06;61.05
79678;BME280;69145;45.544;10.214;2023-07-09T09:35:20;100516.25;;;26.04;59.94
79678;BME280;69145;45.544;10.214;2023-07-09T09:37:53;100521.31;;;26.11;58.96
79678;BME280;69145;45.544;10.214;2023-07-09T09:40:19;100512.53;;;26.15;59.71
79678;BME280;69145;45.544;10.214;2023-07-09T09:42:57;100505.94;;;26.13;60.60
79678;BME280;69145;45.544;10.214;2023-07-09T09:45:43;100518.88;;;26.29;55.97
79678;BME280;69145;45.544;10.214;2023-07-09T09:48:30;100522.56;;;26.38;56.66
79678;BME280;69145;45.544;10.214;2023-07-09T09:50:57;100508.53;;;26.23;58.07
79678;BME280;69145;45.544;10.214;2023-07-09T09:53:26;100523.94;;;26.21;59.59
79678;BME280;69145;45.544;10.214;2023-07-09T09:55:54;100519.44;;;26.11;59.89
79678;BME280;69145;45.544;10.214;2023-07-09T09:58:24;100506.97;;;26.02;59.34
79678;BME280;69145;45.544;10.214;2023-07-09T10:00:52;100527.66;;;26.25;57.36
79678;BME280;69145;45.544;10.214;2023-07-09T10:03:18;100525.25;;;26.28;57.00
79678;BME280;69145;45.544;10.214;2023-07-09T10:05:52;100522.88;;;26.27;57.93
79678;BME280;69145;45.544;10.214;2023-07-09T10:11:27;100512.81;;;26.09;61.45
79678;BME280;69145;45.544;10.214;2023-07-09T10:13:55;100517.28;;;26.18;60.07
79678;BME280;69145;45.544;10.214;2023-07-09T10:16:25;100521.56;;;26.19;60.03
79678;BME280;69145;45.544;10.214;2023-07-09T10:18:59;100525.78;;;26.30;59.40
79678;BME280;69145;45.544;10.214;2023-07-09T10:27:03;100511.19;;;26.23;58.44
79678;BME280;69145;45.544;10.214;2023-07-09T10:35:30;100519.16;;;26.23;59.46
79678;BME280;69145;45.544;10.214;2023-07-09T10:40:44;100521.00;;;26.22;59.20
79678;BME280;69145;45.544;10.214;2023-07-09T10:43:17;100517.81;;;26.20;59.47
79678;BME280;69145;45.544;10.214;2023-07-09T10:45:57;100522.59;;;26.28;59.10
79678;BME280;69145;45.544;10.214;2023-07-09T10:48:40;100522.88;;;26.27;58.88
79678;BME280;69145;45.544;10.214;2023-07-09T10:51:37;100511.47;;;26.26;59.22
79678;BME280;69145;45.544;10.214;2023-07-09T10:56:47;100515.69;;;26.32;59.44
79678;BME280;69145;45.544;10.214;2023-07-09T10:59:28;100505.88;;;26.28;59.49
79678;BME280;69145;45.544;10.214;2023-07-09T11:02:12;100509.84;;;26.35;59.08
79678;BME280;69145;45.544;10.214;2023-07-09T11:04:46;100520.72;;;26.39;59.12
79678;BME280;69145;45.544;10.214;2023-07-09T11:07:15;100517.25;;;26.38;59.70
79678;BME280;69145;45.544;10.214;2023-07-09T11:09:43;100508.00;;;26.36;58.89
79678;BME280;69145;45.544;10.214;2023-07-09T11:12:18;100509.84;;;26.30;59.33
79678;BME280;69145;45.544;10.214;2023-07-09T11:15:05;100505.59;;;26.39;58.32
79678;BME280;69145;45.544;10.214;2023-07-09T11:17:34;100498.69;;;26.38;58.51
79678;BME280;69145;45.544;10.214;2023-07-09T11:23:01;100502.03;;;26.64;57.20
79678;BME280;69145;45.544;10.214;2023-07-09T11:28:03;100487.19;;;26.58;57.03
79678;BME280;69145;45.544;10.214;2023-07-09T11:30:30;100495.66;;;26.65;57.17
79678;BME280;69145;45.544;10.214;2023-07-09T11:32:59;100495.13;;;26.68;56.79
79678;BME280;69145;45.544;10.214;2023-07-09T11:35:28;100491.94;;;26.61;57.37
79678;BME280;69145;45.544;10.214;2023-07-09T11:37:54;100486.16;;;26.59;57.37
79678;BME280;69145;45.544;10.214;2023-07-09T11:40:22;100481.09;;;26.52;57.94
79678;BME280;69145;45.544;10.214;2023-07-09T11:42:49;100492.53;;;26.53;58.14
79678;BME280;69145;45.544;10.214;2023-07-09T11:45:24;100487.25;;;26.48;58.10
79678;BME280;69145;45.544;10.214;2023-07-09T11:48:06;100489.34;;;26.51;58.18
79678;BME280;69145;45.544;10.214;2023-07-09T11:50:39;100467.66;;;26.34;58.19
79678;BME280;69145;45.544;10.214;2023-07-09T11:55:46;100480.59;;;26.45;58.37
79678;BME280;69145;45.544;10.214;2023-07-09T11:58:13;100484.34;;;26.44;58.40
79678;BME280;69145;45.544;10.214;2023-07-09T12:00:45;100473.19;;;26.42;58.22
79678;BME280;69145;45.544;10.214;2023-07-09T12:03:25;100474.00;;;26.43;58.16
79678;BME280;69145;45.544;10.214;2023-07-09T12:05:54;100459.13;;;26.42;58.27
79678;BME280;69145;45.544;10.214;2023-07-09T12:08:27;100471.88;;;26.40;58.27
79678;BME280;69145;45.544;10.214;2023-07-09T12:10:54;100477.16;;;26.45;58.23
79678;BME280;69145;45.544;10.214;2023-07-09T12:13:20;100466.56;;;26.40;58.27
79678;BME280;69145;45.544;10.214;2023-07-09T12:15:46;100462.84;;;26.41;58.32
79678;BME280;69145;45.544;10.214;2023-07-09T12:18:14;100471.59;;;26.46;58.37
79678;BME280;69145;45.544;10.214;2023-07-09T12:20:40;100463.13;;;26.39;58.10
79678;BME280;69145;45.544;10.214;2023-07-09T12:23:16;100464.94;;;26.49;57.30
79678;BME280;69145;45.544;10.214;2023-07-09T12:25:49;100459.31;;;26.55;56.44
79678;BME280;69145;45.544;10.214;2023-07-09T12:28:15;100460.69;;;26.53;57.53
79678;BME280;69145;45.544;10.214;2023-07-09T12:30:49;100446.63;;;26.47;56.80
79678;BME280;69145;45.544;10.214;2023-07-09T12:33:20;100443.41;;;26.55;56.72
79678;BME280;69145;45.544;10.214;2023-07-09T12:35:47;100423.06;;;26.41;57.48
79678;BME280;69145;45.544;10.214;2023-07-09T12:38:20;100445.31;;;26.50;57.69
79678;BME280;69145;45.544;10.214;2023-07-09T12:40:48;100442.91;;;26.48;57.74
79678;BME280;69145;45.544;10.214;2023-07-09T12:43:15;100434.44;;;26.46;58.05
79678;BME280;69145;45.544;10.214;2023-07-09T12:45:42;100445.81;;;26.52;57.63
79678;BME280;69145;45.544;10.214;2023-07-09T12:48:10;100445.81;;;26.57;56.69
79678;BME280;69145;45.544;10.214;2023-07-09T12:50:38;100438.38;;;26.59;56.48
79678;BME280;69145;45.544;10.214;2023-07-09T12:53:13;100424.31;;;26.48;56.99
79678;BME280;69145;45.544;10.214;2023-07-09T12:55:42;100439.13;;;26.59;56.79
79678;BME280;69145;45.544;10.214;2023-07-09T12:58:23;100434.38;;;26.56;57.31
79678;BME280;69145;45.544;10.214;2023-07-09T13:00:51;100430.41;;;26.54;57.26
79678;BME280;69145;45.544;10.214;2023-07-09T13:03:26;100421.41;;;26.55;57.24
79678;BME280;69145;45.544;10.214;2023-07-09T13:05:57;100421.88;;;26.62;57.41
79678;BME280;69145;45.544;10.214;2023-07-09T13:08:25;100420.84;;;26.58;56.99
79678;BME280;69145;45.544;10.214;2023-07-09T13:10:51;100420.28;;;26.66;56.30
79678;BME280;69145;45.544;10.214;2023-07-09T13:13:19;100412.84;;;26.68;56.32
79678;BME280;69145;45.544;10.214;2023-07-09T13:16:00;100409.91;;;26.64;56.17
79678;BME280;69145;45.544;10.214;2023-07-09T13:18:27;100410.97;;;26.69;56.23
79678;BME280;69145;45.544;10.214;2023-07-09T13:20:57;100405.84;;;26.82;55.54
79678;BME280;69145;45.544;10.214;2023-07-09T13:23:26;100406.69;;;26.78;56.21